Franklin, NJ (07416)

11:24 AM EDT on April 25, 2017 (GMT -0400)
KNJFRANK2 | | Change Station

Elev 571 ft 41.12 °N, 74.59 °W | Updated 9 minutes ago

Rain
Rain
50.0 °F
Feels Like 49 °F
N
4.0
Wind Variable Wind from NE
Gusts 11.0 mph

Today
High -- | Low -- °F
--% Chance of Precip.
Yesterday
High -- | Low -- °F
Precip. -- in
Pressure 30.12 in
Visibility 2.5 miles
Clouds Overcast 600 ft
Windchill 49 °F
Dew Point 49 °F
Humidity 95%
Rainfall 0.07 in
Snow Depth Not available.
6:03 AM 7:49 PM
Waning Crescent, 1% visible
METAR KFWN 251453Z AUTO 05010KT 2 1/2SM BR OVC006 10/09 A3011 RMK AO2 RAB1356E06B23E33 SLP197 P0000 60000 T01000089 58004
Pressure 30.12 in
Visibility 2.5 miles
Clouds Overcast 600 ft
Windchill 49 °F
Dew Point 49 °F
Humidity 95%
Rainfall 0.07 in
Snow Depth Not available.
6:03 AM 7:49 PM
Waning Crescent, 1% visible
METAR KFWN 251453Z AUTO 05010KT 2 1/2SM BR OVC006 10/09 A3011 RMK AO2 RAB1356E06B23E33 SLP197 P0000 60000 T01000089 58004

Get Severe Weather Alerts

Thanks for signing up!

Be on the lookout for a verification email in your inbox.

You'll start receiving the daily forecast at 8 AM.

×

10-Day Weather Forecast

Almanac

Astronomy

Apr. 25, 2017 Rise Set
Actual Time
Civil Twilight
Nautical Twilight
Astronomical Twilight
Moon
Length of Visible Light
Length of Day
Tomorrow will be .
, % of the Moon is Illuminated

Today's Extremes

State Highs State Lows

Community

WunderPhotos

WunderBlog® & News

Nearby

Air Quality

  Air Quality AQ Index Pollutant
Not available.

Snow Depth

Station Depth Elevation

Earthquake Activity

City Distance Mag. Time & Date
Minimum magnitude displayed is 2.5.

Coastal Water Temperatures

Place Temperature

Stations

Nearby Weather Stations

Station Location Temp. Windchill Dew Point Humidity Wind Precip. Elev Updated Type
                   

Watches & Warnings

There are currently no watches in effect.